Time,TemperatureF,DewpointF,PressureIn,WindDirection,WindDirectionDegrees,WindSpeedMPH,WindSpeedGustMPH,Humidity,HourlyPrecipIn,Conditions,Clouds,dailyrainin,SolarRadiationWatts/m^2,SoftwareType,DateUTC
2013-04-09 00:00:00,61.4,51.0,30.05,NNW,327,0.0,2.0,69,0.00,,,0.00,0,weatherlink.com 1.10,2013-04-09 04:00:00,
2013-04-09 00:15:00,60.7,51.0,30.05,NNW,327,0.0,0.0,70,0.00,,,0.00,0,weatherlink.com 1.10,2013-04-09 04:15:00,
2013-04-09 00:30:00,60.8,51.0,30.05,NNW,327,0.0,3.0,71,0.00,,,0.00,0,weatherlink.com 1.10,2013-04-09 04:30:00,
2013-04-09 00:45:00,61.0,51.0,30.05,NNW,327,1.0,1.0,70,0.00,,,0.00,0,weatherlink.com 1.10,2013-04-09 04:45:00,
2013-04-09 01:00:00,61.1,51.0,30.05,NNW,327,0.0,3.0,70,0.00,,,0.00,0,weatherlink.com 1.10,2013-04-09 05:00:00,
2013-04-09 01:15:00,60.9,51.0,30.05,SSW,211,1.0,3.0,71,0.00,,,0.00,0,weatherlink.com 1.10,2013-04-09 05:15:00,
2013-04-09 01:30:00,60.9,51.0,30.05,SSW,211,2.0,2.0,71,0.00,,,0.00,0,weatherlink.com 1.10,2013-04-09 05:30:00,
2013-04-09 01:46:00,60.5,51.0,30.05,SSW,209,0.0,2.0,72,0.00,,,0.00,0,weatherlink.com 1.10,2013-04-09 05:46:00,
2013-04-09 02:01:00,59.7,50.0,30.05,SSW,209,0.0,1.0,71,0.00,,,0.00,0,weatherlink.com 1.10,2013-04-09 06:01:00,
2013-04-09 02:16:00,57.3,49.0,30.04,SSW,209,0.0,0.0,75,0.00,,,0.00,0,weatherlink.com 1.10,2013-04-09 06:16:00,
2013-04-09 02:31:00,55.3,49.0,30.04,SSW,209,0.0,1.0,79,0.00,,,0.00,0,weatherlink.com 1.10,2013-04-09 06:31:00,
2013-04-09 03:16:00,52.7,49.0,30.04,SSW,209,0.0,0.0,86,0.00,,,0.00,0,weatherlink.com 1.10,2013-04-09 07:16:00,
2013-04-09 03:31:00,52.3,49.0,30.03,SSW,209,0.0,0.0,87,0.00,,,0.00,0,weatherlink.com 1.10,2013-04-09 07:31:00,
2013-04-09 04:01:00,51.5,48.0,30.04,SSW,209,0.0,0.0,88,0.00,,,0.00,0,weatherlink.com 1.10,2013-04-09 08:01:00,
2013-04-09 04:31:00,50.5,47.0,30.04,SSW,209,0.0,0.0,89,0.00,,,0.00,0,weatherlink.com 1.10,2013-04-09 08:31:00,
2013-04-09 04:46:00,50.1,47.0,30.04,SSW,209,0.0,0.0,90,0.00,,,0.00,0,weatherlink.com 1.10,2013-04-09 08:46:00,
2013-04-09 05:01:00,49.9,47.0,30.05,SSW,209,0.0,0.0,91,0.00,,,0.00,0,weatherlink.com 1.10,2013-04-09 09:01:00,
2013-04-09 05:16:00,49.7,47.0,30.05,SSW,209,0.0,1.0,91,0.00,,,0.00,0,weatherlink.com 1.10,2013-04-09 09:16:00,
2013-04-09 05:31:00,49.6,47.0,30.06,SSW,209,0.0,0.0,92,0.00,,,0.00,0,weatherlink.com 1.10,2013-04-09 09:31:00,
2013-04-09 05:46:00,49.7,48.0,30.07,SSW,209,0.0,0.0,92,0.00,,,0.00,0,weatherlink.com 1.10,2013-04-09 09:46:00,
2013-04-09 06:01:00,49.8,48.0,30.07,SSW,209,0.0,0.0,93,0.00,,,0.00,0,weatherlink.com 1.10,2013-04-09 10:01:00,
2013-04-09 06:16:00,50.1,48.0,30.07,SSW,209,0.0,0.0,92,0.00,,,0.00,0,weatherlink.com 1.10,2013-04-09 10:16:00,
2013-04-09 06:31:00,50.1,48.0,30.07,SSW,209,0.0,0.0,92,0.00,,,0.00,0,weatherlink.com 1.10,2013-04-09 10:31:00,
2013-04-09 07:01:00,50.1,48.0,30.09,SSW,209,0.0,0.0,92,0.00,,,0.00,0,weatherlink.com 1.10,2013-04-09 11:01:00,
2013-04-09 07:31:00,50.1,48.0,30.10,SSW,209,0.0,0.0,93,0.00,,,0.00,11,weatherlink.com 1.10,2013-04-09 11:31:00,
2013-04-09 07:46:00,50.1,48.0,30.11,SSW,209,0.0,0.0,92,0.00,,,0.00,16,weatherlink.com 1.10,2013-04-09 11:46:00,
2013-04-09 08:01:00,50.0,48.0,30.11,SSW,209,0.0,0.0,93,0.00,,,0.00,28,weatherlink.com 1.10,2013-04-09 12:01:00,
2013-04-09 08:16:00,50.2,48.0,30.12,SSW,209,0.0,1.0,93,0.00,,,0.00,30,weatherlink.com 1.10,2013-04-09 12:16:00,
2013-04-09 08:31:00,50.3,48.0,30.12,SSW,209,0.0,0.0,93,0.00,,,0.00,40,weatherlink.com 1.10,2013-04-09 12:31:00,
2013-04-09 08:47:00,50.6,49.0,30.13,SSW,209,0.0,0.0,93,0.00,,,0.00,81,weatherlink.com 1.10,2013-04-09 12:47:00,
2013-04-09 09:02:00,51.5,50.0,30.12,SSW,209,0.0,0.0,93,0.00,,,0.00,44,weatherlink.com 1.10,2013-04-09 13:02:00,
2013-04-09 09:17:00,52.9,51.0,30.12,SSW,209,0.0,0.0,92,0.00,,,0.00,113,weatherlink.com 1.10,2013-04-09 13:17:00,
2013-04-09 09:32:00,54.8,52.0,30.12,SSW,209,0.0,0.0,90,0.00,,,0.00,91,weatherlink.com 1.10,2013-04-09 13:32:00,
2013-04-09 10:01:00,59.7,55.0,30.12,SSW,209,0.0,2.0,85,0.00,,,0.00,77,weatherlink.com 1.10,2013-04-09 14:01:00,
2013-04-09 10:17:00,62.3,56.0,30.13,SSW,209,0.0,1.0,81,0.00,,,0.00,56,weatherlink.com 1.10,2013-04-09 14:17:00,
2013-04-09 10:32:00,65.1,57.0,30.13,NNW,338,1.0,4.0,75,0.00,,,0.00,306,weatherlink.com 1.10,2013-04-09 14:32:00,
2013-04-09 11:02:00,69.6,58.0,30.13,NNW,335,3.0,4.0,67,0.00,,,0.00,345,weatherlink.com 1.10,2013-04-09 15:02:00,
2013-04-09 11:17:00,71.5,59.0,30.13,SSE,164,1.0,5.0,64,0.00,,,0.00,638,weatherlink.com 1.10,2013-04-09 15:17:00,
2013-04-09 11:32:00,72.3,58.0,30.13,NW,309,4.0,5.0,60,0.00,,,0.00,139,weatherlink.com 1.10,2013-04-09 15:32:00,
2013-04-09 11:47:00,73.0,55.0,30.13,WNW,298,3.0,11.0,54,0.00,,,0.00,325,weatherlink.com 1.10,2013-04-09 15:47:00,
2013-04-09 12:17:00,75.0,55.0,30.13,South,172,2.0,6.0,50,0.00,,,0.00,455,weatherlink.com 1.10,2013-04-09 16:17:00,
2013-04-09 12:32:00,74.5,57.0,30.12,WNW,298,1.0,3.0,54,0.00,,,0.00,313,weatherlink.com 1.10,2013-04-09 16:32:00,
2013-04-09 12:47:00,75.1,55.0,30.12,WNW,294,5.0,5.0,49,0.00,,,0.00,320,weatherlink.com 1.10,2013-04-09 16:47:00,
2013-04-09 13:02:00,75.4,55.0,30.12,WNW,298,1.0,6.0,49,0.00,,,0.00,230,weatherlink.com 1.10,2013-04-09 17:02:00,
2013-04-09 13:17:00,76.5,55.0,30.12,NW,310,0.0,8.0,48,0.00,,,0.00,232,weatherlink.com 1.10,2013-04-09 17:17:00,
2013-04-09 13:32:00,77.2,56.0,30.11,NNW,337,5.0,9.0,48,0.00,,,0.00,918,weatherlink.com 1.10,2013-04-09 17:32:00,
2013-04-09 13:47:00,77.5,56.0,30.10,West,277,2.0,8.0,47,0.00,,,0.00,932,weatherlink.com 1.10,2013-04-09 17:47:00,
2013-04-09 14:03:00,77.5,56.0,30.10,NW,307,1.0,8.0,47,0.00,,,0.00,939,weatherlink.com 1.10,2013-04-09 18:03:00,
2013-04-09 14:17:00,78.1,56.0,30.09,South,173,2.0,6.0,46,0.00,,,0.00,905,weatherlink.com 1.10,2013-04-09 18:17:00,
2013-04-09 14:32:00,78.1,55.0,30.09,WNW,301,0.0,5.0,45,0.00,,,0.00,907,weatherlink.com 1.10,2013-04-09 18:32:00,
2013-04-09 14:47:00,78.5,54.0,30.08,WNW,296,0.0,6.0,43,0.00,,,0.00,861,weatherlink.com 1.10,2013-04-09 18:47:00,
2013-04-09 15:03:00,78.9,54.0,30.08,WNW,290,0.0,12.0,43,0.00,,,0.00,842,weatherlink.com 1.10,2013-04-09 19:03:00,
2013-04-09 15:18:00,78.9,54.0,30.07,West,276,3.0,8.0,43,0.00,,,0.00,837,weatherlink.com 1.10,2013-04-09 19:18:00,
2013-04-09 15:33:00,79.2,53.0,30.07,NE,38,0.0,7.0,41,0.00,,,0.00,404,weatherlink.com 1.10,2013-04-09 19:33:00,
2013-04-09 15:48:00,79.2,54.0,30.06,WNW,286,1.0,5.0,42,0.00,,,0.00,195,weatherlink.com 1.10,2013-04-09 19:48:00,
2013-04-09 16:03:00,79.4,54.0,30.05,NW,315,2.0,5.0,41,0.00,,,0.00,756,weatherlink.com 1.10,2013-04-09 20:03:00,
2013-04-09 16:18:00,79.2,55.0,30.05,NW,306,6.0,7.0,43,0.00,,,0.00,478,weatherlink.com 1.10,2013-04-09 20:18:00,
2013-04-09 16:33:00,78.3,55.0,30.05,NNW,338,0.0,4.0,44,0.00,,,0.00,211,weatherlink.com 1.10,2013-04-09 20:33:00,
2013-04-09 16:48:00,78.4,54.0,30.05,NW,325,1.0,2.0,43,0.00,,,0.00,160,weatherlink.com 1.10,2013-04-09 20:48:00,
2013-04-09 17:03:00,78.5,55.0,30.04,East,92,3.0,7.0,44,0.00,,,0.00,158,weatherlink.com 1.10,2013-04-09 21:03:00,
2013-04-09 17:18:00,79.8,55.0,30.04,NW,323,2.0,5.0,43,0.00,,,0.00,118,weatherlink.com 1.10,2013-04-09 21:18:00,
2013-04-09 17:33:00,79.5,54.0,30.04,West,269,1.0,6.0,41,0.00,,,0.00,113,weatherlink.com 1.10,2013-04-09 21:33:00,
2013-04-09 17:48:00,79.1,55.0,30.04,NW,311,1.0,4.0,44,0.00,,,0.00,105,weatherlink.com 1.10,2013-04-09 21:48:00,
2013-04-09 18:02:00,79.1,55.0,30.04,NW,311,2.0,5.0,43,0.00,,,0.00,107,weatherlink.com 1.10,2013-04-09 22:02:00,
2013-04-09 18:18:00,79.1,55.0,30.04,NNE,18,1.0,9.0,43,0.00,,,0.00,118,weatherlink.com 1.10,2013-04-09 22:18:00,
2013-04-09 18:33:00,79.1,54.0,30.04,NW,311,0.0,6.0,42,0.00,,,0.00,77,weatherlink.com 1.10,2013-04-09 22:33:00,
2013-04-09 18:48:00,77.8,53.0,30.04,North,355,1.0,3.0,43,0.00,,,0.00,30,weatherlink.com 1.10,2013-04-09 22:48:00,
2013-04-09 19:03:00,76.6,54.0,30.04,WNW,300,4.0,5.0,45,0.00,,,0.00,44,weatherlink.com 1.10,2013-04-09 23:03:00,
2013-04-09 19:18:00,75.9,54.0,30.04,WNW,285,0.0,0.0,47,0.00,,,0.00,60,weatherlink.com 1.10,2013-04-09 23:18:00,
2013-04-09 19:33:00,75.3,54.0,30.04,WNW,285,0.0,2.0,48,0.00,,,0.00,35,weatherlink.com 1.10,2013-04-09 23:33:00,
2013-04-09 19:48:00,74.5,55.0,30.04,WNW,285,0.0,1.0,50,0.00,,,0.00,16,weatherlink.com 1.10,2013-04-09 23:48:00,
2013-04-09 20:03:00,73.3,55.0,30.03,WSW,251,2.0,3.0,53,0.00,,,0.00,0,weatherlink.com 1.10,2013-04-10 00:03:00,
2013-04-09 20:18:00,72.0,55.0,30.03,WSW,251,0.0,3.0,55,0.00,,,0.00,0,weatherlink.com 1.10,2013-04-10 00:18:00,
2013-04-09 20:33:00,70.4,54.0,30.01,WSW,251,0.0,1.0,57,0.00,,,0.00,0,weatherlink.com 1.10,2013-04-10 00:33:00,
2013-04-09 20:48:00,68.8,54.0,30.01,WSW,251,0.0,2.0,60,0.00,,,0.00,0,weatherlink.com 1.10,2013-04-10 00:48:00,
2013-04-09 21:03:00,68.0,54.0,30.03,WSW,251,1.0,2.0,61,0.00,,,0.00,0,weatherlink.com 1.10,2013-04-10 01:03:00,
2013-04-09 21:18:00,67.3,54.0,30.03,WSW,251,1.0,2.0,62,0.00,,,0.00,0,weatherlink.com 1.10,2013-04-10 01:18:00,
2013-04-09 21:33:00,67.0,53.0,30.04,WSW,251,1.0,2.0,62,0.00,,,0.00,0,weatherlink.com 1.10,2013-04-10 01:33:00,
2013-04-09 21:48:00,67.1,53.0,30.05,WSW,251,1.0,2.0,61,0.00,,,0.00,0,weatherlink.com 1.10,2013-04-10 01:48:00,
2013-04-09 22:03:00,67.1,53.0,30.05,WSW,251,0.0,3.0,61,0.00,,,0.00,0,weatherlink.com 1.10,2013-04-10 02:03:00,
2013-04-09 22:18:00,67.1,53.0,30.06,WSW,251,0.0,1.0,61,0.00,,,0.00,0,weatherlink.com 1.10,2013-04-10 02:18:00,
2013-04-09 22:33:00,65.6,53.0,30.07,WSW,251,0.0,1.0,64,0.00,,,0.00,0,weatherlink.com 1.10,2013-04-10 02:33:00,
2013-04-09 22:48:00,64.9,53.0,30.07,WSW,251,0.0,1.0,66,0.00,,,0.00,0,weatherlink.com 1.10,2013-04-10 02:48:00,
2013-04-09 23:03:00,65.6,53.0,30.06,WSW,251,0.0,3.0,65,0.00,,,0.00,0,weatherlink.com 1.10,2013-04-10 03:03:00,
2013-04-09 23:18:00,65.6,53.0,30.06,WSW,251,0.0,1.0,65,0.00,,,0.00,0,weatherlink.com 1.10,2013-04-10 03:18:00,
2013-04-09 23:33:00,64.7,53.0,30.06,WSW,251,0.0,1.0,67,0.00,,,0.00,0,weatherlink.com 1.10,2013-04-10 03:33:00,
2013-04-09 23:48:00,63.9,53.0,30.06,WSW,251,0.0,0.0,68,0.00,,,0.00,0,weatherlink.com 1.10,2013-04-10 03:48:00,